createdAt,value
2022-12-05T00:01:16.714Z,46.60
2022-12-05T00:03:48.528Z,40.30
2022-12-05T00:06:16.736Z,41.50
2022-12-05T00:08:45.132Z,39.67
2022-12-05T00:11:14.510Z,36.10
2022-12-05T00:13:44.456Z,40.90
2022-12-05T00:16:14.610Z,41.27
2022-12-05T00:18:42.706Z,45.23
2022-12-05T00:21:14.783Z,47.20
2022-12-05T00:23:43.141Z,37.53
2022-12-05T00:26:11.676Z,46.23
2022-12-05T00:28:40.873Z,50.90
2022-12-05T00:31:12.353Z,45.77
2022-12-05T00:33:40.860Z,47.60
2022-12-05T00:36:11.114Z,50.77
2022-12-05T00:38:39.721Z,60.87
2022-12-05T00:41:09.497Z,48.40
2022-12-05T00:43:38.123Z,46.83
2022-12-05T00:46:08.520Z,45.43
2022-12-05T00:48:38.061Z,49.60
2022-12-05T00:51:08.388Z,50.40
2022-12-05T00:53:36.520Z,42.87
2022-12-05T00:56:05.517Z,44.20
2022-12-05T00:58:34.293Z,51.40
2022-12-05T01:01:07.598Z,55.97
2022-12-05T01:03:37.334Z,61.33
2022-12-05T01:06:06.095Z,53.97
2022-12-05T01:08:34.853Z,59.40
2022-12-05T01:11:04.261Z,59.87
2022-12-05T01:13:32.821Z,50.17
2022-12-05T01:16:00.832Z,66.63
2022-12-05T01:18:29.388Z,58.37
2022-12-05T01:20:58.828Z,71.40
2022-12-05T01:23:26.905Z,56.43
2022-12-05T01:25:54.878Z,58.67
2022-12-05T01:28:23.066Z,54.20
2022-12-05T01:30:51.710Z,55.53
2022-12-05T01:33:19.775Z,71.67
2022-12-05T01:35:47.769Z,56.97
2022-12-05T01:38:17.158Z,62.07
2022-12-05T01:40:45.148Z,63.93
2022-12-05T01:43:17.986Z,57.23
2022-12-05T01:45:47.754Z,63.13
2022-12-05T01:48:19.554Z,67.17
2022-12-05T01:50:48.542Z,58.67
2022-12-05T01:53:18.564Z,55.23
2022-12-05T01:55:48.672Z,46.30
2022-12-05T01:58:17.058Z,56.13
2022-12-05T02:00:45.971Z,44.63
2022-12-05T02:03:19.209Z,53.03
2022-12-05T02:05:51.112Z,46.50
2022-12-05T02:08:20.747Z,56.10
2022-12-05T02:10:52.854Z,65.97
2022-12-05T02:13:38.433Z,50.77
2022-12-05T02:16:12.995Z,51.30
2022-12-05T02:18:56.285Z,55.90
2022-12-05T02:21:45.106Z,58.40
2022-12-05T02:24:38.781Z,57.70
2022-12-05T02:27:19.770Z,46.60
2022-12-05T02:30:03.386Z,58.83
2022-12-05T02:32:39.750Z,53.47
2022-12-05T02:35:15.070Z,49.17
2022-12-05T02:37:51.976Z,52.57
2022-12-05T02:40:26.184Z,48.57
2022-12-05T02:43:01.094Z,57.13
2022-12-05T02:45:35.187Z,53.90
2022-12-05T02:48:03.417Z,52.57
2022-12-05T02:50:36.182Z,54.37
2022-12-05T02:53:09.352Z,54.50
2022-12-05T02:55:39.299Z,45.87
2022-12-05T02:58:12.995Z,48.70
2022-12-05T03:00:46.224Z,52.03
2022-12-05T03:03:18.318Z,49.37
2022-12-05T03:05:53.148Z,46.20
2022-12-05T03:08:28.439Z,52.20
2022-12-05T03:10:58.541Z,48.53
2022-12-05T03:13:30.197Z,43.97
2022-12-05T03:16:07.054Z,46.53
2022-12-05T03:18:39.591Z,52.07
2022-12-05T03:21:19.683Z,59.60
2022-12-05T03:23:52.102Z,47.77
2022-12-05T03:26:31.837Z,47.77
2022-12-05T03:29:07.602Z,54.63
2022-12-05T03:31:43.315Z,52.70
2022-12-05T03:34:16.762Z,51.00
2022-12-05T03:36:50.362Z,49.93
2022-12-05T03:39:24.417Z,55.97
2022-12-05T03:42:00.826Z,69.93
2022-12-05T03:44:36.528Z,47.97
2022-12-05T03:47:11.703Z,55.77
2022-12-05T03:49:44.255Z,45.77
2022-12-05T03:52:17.053Z,57.53
2022-12-05T03:54:48.185Z,41.37
2022-12-05T03:57:21.817Z,65.90
2022-12-05T03:59:53.567Z,51.83
2022-12-05T04:02:27.738Z,53.23
2022-12-05T04:04:59.721Z,49.97
2022-12-05T04:07:32.676Z,48.23
2022-12-05T04:10:04.206Z,60.07
2022-12-05T04:12:34.281Z,48.87
2022-12-05T04:15:06.831Z,61.30
2022-12-05T04:17:43.077Z,66.93
2022-12-05T04:20:33.274Z,56.23
2022-12-05T04:23:01.806Z,58.07
2022-12-05T04:25:36.373Z,47.07
2022-12-05T04:28:21.770Z,52.10
2022-12-05T04:30:54.612Z,74.00
2022-12-05T04:33:32.180Z,61.87
2022-12-05T04:36:06.753Z,69.70
2022-12-05T04:38:42.802Z,70.43
2022-12-05T04:41:15.345Z,50.67
2022-12-05T04:43:46.068Z,54.50
2022-12-05T04:46:17.067Z,70.33
2022-12-05T04:48:51.974Z,71.13
2022-12-05T04:51:23.210Z,64.53
2022-12-05T04:53:56.049Z,68.33
2022-12-05T04:56:28.028Z,62.83
2022-12-05T04:58:56.272Z,60.93
2022-12-05T05:01:28.708Z,79.03
2022-12-05T05:04:01.995Z,62.87
2022-12-05T05:06:30.679Z,52.80
2022-12-05T05:08:59.770Z,56.77
2022-12-05T05:11:29.982Z,64.97
2022-12-05T05:13:57.892Z,64.07
2022-12-05T05:16:27.819Z,58.87
2022-12-05T05:19:00.594Z,58.37
2022-12-05T05:21:30.497Z,73.93
2022-12-05T05:23:59.034Z,65.20
2022-12-05T05:26:28.088Z,53.97
2022-12-05T05:28:58.171Z,47.83
2022-12-05T05:31:26.335Z,77.73
2022-12-05T05:33:56.022Z,46.27
2022-12-05T05:36:27.300Z,57.23
2022-12-05T05:38:56.885Z,60.23
2022-12-05T05:41:27.463Z,54.90
2022-12-05T05:43:56.095Z,59.27
2022-12-05T05:46:26.289Z,54.43
2022-12-05T05:48:54.345Z,70.03
2022-12-05T05:51:23.472Z,71.53
2022-12-05T05:53:52.923Z,73.53
2022-12-05T05:56:22.301Z,76.13
2022-12-05T05:58:56.503Z,84.67
2022-12-05T06:01:24.746Z,87.87
2022-12-05T06:03:52.995Z,74.33
2022-12-05T06:06:22.058Z,85.40
2022-12-05T06:08:50.336Z,98.37
2022-12-05T06:11:25.992Z,88.47
2022-12-05T06:13:55.335Z,60.97
2022-12-05T06:16:23.472Z,49.67
2022-12-05T06:18:52.998Z,54.33
2022-12-05T06:21:21.548Z,72.37
2022-12-05T06:23:50.028Z,59.03
2022-12-05T06:26:21.497Z,80.60
2022-12-05T06:28:49.725Z,72.70
2022-12-05T06:31:19.866Z,76.73
2022-12-05T06:33:48.217Z,78.43
2022-12-05T06:36:18.798Z,68.40
2022-12-05T06:38:47.177Z,82.77
2022-12-05T06:41:17.259Z,70.33
2022-12-05T06:43:46.902Z,48.83
2022-12-05T06:46:16.324Z,59.17
2022-12-05T06:48:44.633Z,64.77
2022-12-05T06:51:15.105Z,87.33
2022-12-05T06:53:43.945Z,61.90
2022-12-05T06:56:13.802Z,55.57
2022-12-05T06:58:42.048Z,60.20
2022-12-05T07:01:31.800Z,53.07
2022-12-05T07:04:00.384Z,50.57
2022-12-05T07:06:29.008Z,47.07
2022-12-05T07:08:56.972Z,46.50
2022-12-05T07:11:25.247Z,62.07
2022-12-05T07:13:53.298Z,47.87
2022-12-05T07:16:22.909Z,65.33
2022-12-05T07:18:51.273Z,72.77
2022-12-05T07:21:21.588Z,59.10
2022-12-05T07:23:51.050Z,226.27
2022-12-05T07:26:21.193Z,62.40
2022-12-05T07:28:49.954Z,62.70
2022-12-05T07:31:20.124Z,52.87
2022-12-05T07:33:50.033Z,51.93
2022-12-05T07:36:20.250Z,46.40
2022-12-05T07:38:48.589Z,72.23
2022-12-05T07:41:20.928Z,80.13
2022-12-05T07:43:48.962Z,52.83
2022-12-05T07:46:17.497Z,55.23
2022-12-05T07:48:45.484Z,52.23
2022-12-05T07:51:14.762Z,67.20
2022-12-05T07:53:44.265Z,50.30
2022-12-05T07:56:16.836Z,64.37
2022-12-05T07:58:46.119Z,47.33
2022-12-05T08:01:16.186Z,67.97
2022-12-05T08:03:45.532Z,72.80
2022-12-05T08:06:16.677Z,66.67
2022-12-05T08:08:44.803Z,80.63
2022-12-05T08:11:14.965Z,66.73
2022-12-05T08:13:43.378Z,71.20
2022-12-05T08:16:13.703Z,72.83
2022-12-05T08:18:42.136Z,46.37
2022-12-05T08:21:11.704Z,55.57
2022-12-05T08:23:41.857Z,53.53
2022-12-05T08:26:11.955Z,38.20
2022-12-05T08:28:40.170Z,48.10
2022-12-05T08:31:10.616Z,57.13
2022-12-05T08:33:38.833Z,75.30
2022-12-05T08:36:09.513Z,46.57
2022-12-05T08:38:38.040Z,47.80
2022-12-05T08:41:09.596Z,65.03
2022-12-05T08:43:37.637Z,46.17
2022-12-05T08:46:06.412Z,41.47
2022-12-05T08:48:35.984Z,67.30
2022-12-05T08:51:07.209Z,50.20
2022-12-05T08:53:40.975Z,41.13
2022-12-05T08:56:14.210Z,43.67
2022-12-05T08:58:42.731Z,38.40
2022-12-05T09:01:12.963Z,42.20
2022-12-05T09:03:47.305Z,46.60
2022-12-05T09:06:17.845Z,54.53
2022-12-05T09:08:46.102Z,40.67
2022-12-05T09:11:17.478Z,41.73
2022-12-05T09:13:46.468Z,38.30
2022-12-05T09:16:16.380Z,46.27
2022-12-05T09:18:45.170Z,41.83
2022-12-05T09:21:15.093Z,47.97
2022-12-05T09:23:43.067Z,42.13
2022-12-05T09:26:15.178Z,44.40
2022-12-05T09:28:45.648Z,46.10
2022-12-05T09:31:16.559Z,49.87
2022-12-05T09:33:45.050Z,44.73
2022-12-05T09:36:15.102Z,43.47
2022-12-05T09:38:43.290Z,46.63
2022-12-05T09:41:44.205Z,47.80
2022-12-05T09:44:19.532Z,44.00
2022-12-05T09:46:54.379Z,45.70
2022-12-05T09:49:24.402Z,42.10
2022-12-05T09:51:55.447Z,35.77
2022-12-05T09:54:25.895Z,39.83
2022-12-05T09:56:54.138Z,33.43
2022-12-05T09:59:23.476Z,35.33
2022-12-05T10:01:58.499Z,36.07
2022-12-05T10:04:52.384Z,37.67
2022-12-05T10:07:26.732Z,39.20
2022-12-05T10:10:04.161Z,39.77
2022-12-05T10:12:47.913Z,38.37
2022-12-05T10:15:30.436Z,43.20
2022-12-05T10:18:00.735Z,40.17
2022-12-05T10:20:37.426Z,37.60
2022-12-05T10:23:18.632Z,39.70
2022-12-05T10:25:59.966Z,44.43
2022-12-05T10:28:34.499Z,35.83
2022-12-05T10:31:08.371Z,35.57
2022-12-05T10:33:40.291Z,35.67
2022-12-05T10:36:12.448Z,37.53
2022-12-05T10:38:40.930Z,37.90
2022-12-05T10:41:10.957Z,29.43
2022-12-05T10:43:42.455Z,33.87
2022-12-05T10:46:16.887Z,40.67
2022-12-05T10:48:45.575Z,36.50
2022-12-05T10:51:16.699Z,41.77
2022-12-05T10:53:49.411Z,34.27
2022-12-05T10:56:40.426Z,30.33
2022-12-05T10:59:10.402Z,30.93
2022-12-05T11:01:46.721Z,32.57
2022-12-05T11:04:41.185Z,34.70
2022-12-05T11:07:22.958Z,32.93
2022-12-05T11:09:51.130Z,30.50
2022-12-05T11:12:22.265Z,25.60
2022-12-05T11:15:03.090Z,38.93
2022-12-05T11:17:37.564Z,41.37
2022-12-05T11:20:49.883Z,48.47
2022-12-05T11:23:26.087Z,38.57
2022-12-05T11:25:54.775Z,40.07
2022-12-05T11:28:37.798Z,46.67
2022-12-05T11:31:08.877Z,32.63
2022-12-05T11:33:37.631Z,38.03
2022-12-05T11:36:13.270Z,34.30
2022-12-05T11:38:43.064Z,109.73
2022-12-05T11:41:35.679Z,44.10
2022-12-05T11:44:29.208Z,33.27
2022-12-05T11:47:06.993Z,29.40
2022-12-05T11:49:59.794Z,29.03
2022-12-05T11:52:40.445Z,43.10
2022-12-05T11:55:17.384Z,62.27
2022-12-05T11:58:04.585Z,36.67
2022-12-05T12:00:41.146Z,31.40
2022-12-05T12:03:39.505Z,34.80
2022-12-05T12:06:28.257Z,27.57
2022-12-05T12:09:15.825Z,26.23
2022-12-05T12:11:52.360Z,38.30
2022-12-05T12:14:28.559Z,31.03
2022-12-05T12:17:08.833Z,29.23
2022-12-05T12:20:09.711Z,32.57
2022-12-05T12:22:48.541Z,46.87
2022-12-05T12:25:25.960Z,32.10
2022-12-05T12:28:05.898Z,25.60
2022-12-05T12:30:48.615Z,28.03
2022-12-05T12:33:34.157Z,26.13
2022-12-05T12:36:11.660Z,28.80
2022-12-05T12:39:07.608Z,29.50
2022-12-05T12:41:54.289Z,31.03
2022-12-05T12:45:04.768Z,27.73
2022-12-05T12:47:44.424Z,27.50
2022-12-05T12:50:19.204Z,26.30
2022-12-05T12:53:11.681Z,31.43
2022-12-05T12:55:46.008Z,29.47
2022-12-05T12:58:28.998Z,24.00
2022-12-05T13:01:05.530Z,27.67
2022-12-05T13:03:40.445Z,28.37
2022-12-05T13:06:14.295Z,26.57
2022-12-05T13:08:46.332Z,23.50
2022-12-05T13:11:16.306Z,24.03
2022-12-05T13:13:48.085Z,51.27
2022-12-05T13:16:24.744Z,25.10
2022-12-05T13:18:52.828Z,26.80
2022-12-05T13:21:21.470Z,39.47
2022-12-05T13:23:52.233Z,20.80
2022-12-05T13:26:21.498Z,19.93
2022-12-05T13:28:53.456Z,24.13
2022-12-05T13:31:39.714Z,26.20
2022-12-05T13:34:29.183Z,28.43
2022-12-05T13:37:17.184Z,25.83
2022-12-05T13:40:10.786Z,25.77
2022-12-05T13:42:38.977Z,21.23
2022-12-05T13:45:10.208Z,22.37
2022-12-05T13:48:01.496Z,22.43
2022-12-05T13:50:35.429Z,43.43
2022-12-05T13:53:07.330Z,31.60
2022-12-05T13:55:37.463Z,28.50
2022-12-05T13:58:45.382Z,20.67
2022-12-05T14:01:51.915Z,18.60
2022-12-05T14:04:51.024Z,18.83
2022-12-05T14:07:40.728Z,14.40
2022-12-05T14:10:10.671Z,16.23
2022-12-05T14:12:56.381Z,15.60
2022-12-05T14:15:35.767Z,18.00
2022-12-05T14:18:16.863Z,20.63
2022-12-05T14:20:59.262Z,24.87
2022-12-05T14:23:59.603Z,19.23
2022-12-05T14:26:44.865Z,20.67
2022-12-05T14:29:38.436Z,17.30
2022-12-05T14:32:15.322Z,16.43
2022-12-05T14:34:56.187Z,18.37
2022-12-05T14:37:30.018Z,16.07
2022-12-05T14:40:00.145Z,16.30
2022-12-05T14:42:38.329Z,22.10
2022-12-05T14:45:35.439Z,22.43
2022-12-05T14:48:05.378Z,21.73
2022-12-05T14:50:45.751Z,18.97
2022-12-05T14:53:36.699Z,21.30
2022-12-05T14:56:18.551Z,18.00
2022-12-05T14:58:58.970Z,19.13
2022-12-05T15:01:30.203Z,19.10
2022-12-05T15:04:09.269Z,19.30
2022-12-05T15:06:47.415Z,21.83
2022-12-05T15:09:37.754Z,20.80
2022-12-05T15:12:12.085Z,22.03
2022-12-05T15:14:48.007Z,24.37
2022-12-05T15:17:22.681Z,17.90
2022-12-05T15:19:56.116Z,23.67
2022-12-05T15:22:28.749Z,19.00
2022-12-05T15:24:58.670Z,21.40
2022-12-05T15:27:26.853Z,19.90
2022-12-05T15:29:56.505Z,19.33
2022-12-05T15:32:28.712Z,20.87
2022-12-05T15:35:01.823Z,18.40
2022-12-05T15:37:35.538Z,17.80
2022-12-05T15:40:14.088Z,17.63
2022-12-05T15:42:44.549Z,17.10
2022-12-05T15:45:23.287Z,23.33
2022-12-05T15:47:52.845Z,19.10
2022-12-05T15:50:25.465Z,36.63
2022-12-05T15:52:58.129Z,18.70
2022-12-05T15:55:30.939Z,20.10
2022-12-05T15:58:11.195Z,23.37
2022-12-05T16:00:46.386Z,17.10
2022-12-05T16:03:19.185Z,19.40
2022-12-05T16:05:51.049Z,16.97
2022-12-05T16:08:19.449Z,17.70
2022-12-05T16:10:48.917Z,20.43
2022-12-05T16:13:19.039Z,20.13
2022-12-05T16:15:52.825Z,22.30
2022-12-05T16:18:28.453Z,19.07
2022-12-05T16:20:56.978Z,18.43
2022-12-05T16:23:28.184Z,17.60
2022-12-05T16:26:16.522Z,19.40
2022-12-05T16:28:57.180Z,17.03
2022-12-05T16:31:25.382Z,15.80
2022-12-05T16:34:02.853Z,20.57
2022-12-05T16:36:31.270Z,17.53
2022-12-05T16:39:04.323Z,15.07
2022-12-05T16:41:38.660Z,16.60
2022-12-05T16:44:26.871Z,16.90
2022-12-05T16:46:55.514Z,18.03
2022-12-05T16:49:35.167Z,19.67
2022-12-05T16:52:14.002Z,24.77
2022-12-05T16:54:42.593Z,23.27
2022-12-05T16:57:14.794Z,38.50
2022-12-05T16:59:44.059Z,27.83
2022-12-05T17:02:14.635Z,20.87
2022-12-05T17:04:42.953Z,18.30
2022-12-05T17:07:11.214Z,17.60
2022-12-05T17:09:39.127Z,23.47
2022-12-05T17:12:12.828Z,26.23
2022-12-05T17:14:42.159Z,19.53
2022-12-05T17:17:13.906Z,24.77
2022-12-05T17:19:41.817Z,21.80
2022-12-05T17:22:09.881Z,20.70
2022-12-05T17:24:37.894Z,23.57
2022-12-05T17:27:07.011Z,21.30
2022-12-05T17:29:36.026Z,20.40
2022-12-05T17:32:06.209Z,19.17
2022-12-05T17:34:34.153Z,20.57
2022-12-05T17:37:02.534Z,25.80
2022-12-05T17:39:30.537Z,19.63
2022-12-05T17:41:58.465Z,19.40
2022-12-05T17:44:26.521Z,21.30
2022-12-05T17:46:54.494Z,21.63
2022-12-05T17:49:24.528Z,19.13
2022-12-05T17:52:20.680Z,20.43
2022-12-05T17:54:41.882Z,19.37
2022-12-05T17:57:09.818Z,22.33
2022-12-05T17:59:38.207Z,19.73
2022-12-05T18:02:06.301Z,16.53
2022-12-05T18:04:36.686Z,15.60
2022-12-05T18:07:04.804Z,21.17
2022-12-05T18:09:33.941Z,23.60
2022-12-05T18:12:02.188Z,19.10
2022-12-05T18:14:30.785Z,20.07
2022-12-05T18:16:59.066Z,20.33
2022-12-05T18:19:27.346Z,25.17
2022-12-05T18:21:56.683Z,19.90
2022-12-05T18:24:24.725Z,24.57
2022-12-05T18:26:55.762Z,25.37
2022-12-05T18:29:23.900Z,24.87
2022-12-05T18:31:51.917Z,20.50
2022-12-05T18:34:20.239Z,23.50
2022-12-05T18:36:48.145Z,21.40
2022-12-05T18:39:17.551Z,19.70
2022-12-05T18:41:45.598Z,21.33
2022-12-05T18:44:13.822Z,31.23
2022-12-05T18:46:42.150Z,26.37
2022-12-05T18:49:12.358Z,16.80
2022-12-05T18:51:41.426Z,19.10
2022-12-05T18:54:09.405Z,20.27
2022-12-05T18:56:40.063Z,20.37
2022-12-05T18:59:10.166Z,16.83
2022-12-05T19:01:40.928Z,17.63
2022-12-05T19:04:12.226Z,18.03
2022-12-05T19:06:42.848Z,17.40
2022-12-05T19:09:13.673Z,18.93
2022-12-05T19:11:47.361Z,17.60
2022-12-05T19:14:17.125Z,19.50
2022-12-05T19:16:45.404Z,14.87
2022-12-05T19:19:15.520Z,17.47
2022-12-05T19:21:43.518Z,16.80
2022-12-05T19:24:14.534Z,18.70
2022-12-05T19:26:44.613Z,16.20
2022-12-05T19:29:13.717Z,20.00
2022-12-05T19:31:41.780Z,19.87
2022-12-05T19:34:10.543Z,18.83
2022-12-05T19:36:40.397Z,14.50
2022-12-05T19:39:10.282Z,17.43
2022-12-05T19:41:38.285Z,19.20
2022-12-05T19:44:07.589Z,20.13
2022-12-05T19:46:35.897Z,20.87
2022-12-05T19:49:06.554Z,20.67
2022-12-05T19:51:35.792Z,18.77
2022-12-05T19:54:05.282Z,17.10
2022-12-05T19:56:35.148Z,20.77
2022-12-05T19:59:03.656Z,16.57
2022-12-05T20:01:35.150Z,18.43
2022-12-05T20:04:04.796Z,18.60
2022-12-05T20:06:35.424Z,17.70
2022-12-05T20:09:03.828Z,15.83
2022-12-05T20:11:32.053Z,16.53
2022-12-05T20:14:01.426Z,16.37
2022-12-05T20:16:30.232Z,16.70
2022-12-05T20:19:00.525Z,19.10
2022-12-05T20:21:30.400Z,17.57
2022-12-05T20:24:00.671Z,20.40
2022-12-05T20:26:30.682Z,20.37
2022-12-05T20:28:59.494Z,16.73
2022-12-05T20:31:29.678Z,15.93
2022-12-05T20:33:59.268Z,15.10
2022-12-05T20:36:28.881Z,18.70
2022-12-05T20:38:57.978Z,15.57
2022-12-05T20:41:26.182Z,15.33
2022-12-05T20:43:56.077Z,18.77
2022-12-05T20:46:24.759Z,19.70
2022-12-05T20:48:53.524Z,18.63
2022-12-05T20:51:24.553Z,19.13
2022-12-05T20:53:53.033Z,27.33
2022-12-05T20:56:22.211Z,18.03
2022-12-05T20:58:51.874Z,17.00
2022-12-05T21:01:21.353Z,18.50
2022-12-05T21:03:51.078Z,15.60
2022-12-05T21:06:22.702Z,15.40
2022-12-05T21:08:52.553Z,16.23
2022-12-05T21:11:21.290Z,16.10
2022-12-05T21:13:49.481Z,13.70
2022-12-05T21:16:19.209Z,15.33
2022-12-05T21:18:49.241Z,19.70
2022-12-05T21:21:19.268Z,17.47
2022-12-05T21:23:52.717Z,17.80
2022-12-05T21:26:22.903Z,14.67
2022-12-05T21:28:51.108Z,18.27
2022-12-05T21:31:21.827Z,14.70
2022-12-05T21:33:51.736Z,16.00
2022-12-05T21:36:20.666Z,16.77
2022-12-05T21:38:54.148Z,17.63
2022-12-05T21:41:25.957Z,17.50
2022-12-05T21:43:55.581Z,17.77
2022-12-05T21:46:24.312Z,16.80
2022-12-05T21:48:52.488Z,20.77
2022-12-05T21:51:21.353Z,22.87
2022-12-05T21:53:49.424Z,20.23
2022-12-05T21:56:19.464Z,19.93
2022-12-05T21:58:48.757Z,19.70
2022-12-05T22:01:19.046Z,29.40
2022-12-05T22:03:47.314Z,25.10
2022-12-05T22:06:15.718Z,18.33
2022-12-05T22:08:44.378Z,21.20
2022-12-05T22:11:14.442Z,19.83
2022-12-05T22:13:43.077Z,18.70
2022-12-05T22:16:13.260Z,19.67
2022-12-05T22:18:41.499Z,19.93
2022-12-05T22:21:12.818Z,15.37
2022-12-05T22:23:41.144Z,18.23
2022-12-05T22:26:11.197Z,24.10
2022-12-05T22:28:39.742Z,14.93
2022-12-05T22:31:10.921Z,18.17
2022-12-05T22:33:40.617Z,15.40
2022-12-05T22:36:11.361Z,14.70
2022-12-05T22:38:41.234Z,13.20
2022-12-05T22:41:13.496Z,12.53
2022-12-05T22:43:41.960Z,13.80
2022-12-05T22:46:11.882Z,13.13
2022-12-05T22:48:41.986Z,13.90
2022-12-05T22:51:10.247Z,12.30
2022-12-05T22:53:38.641Z,10.17
2022-12-05T22:56:08.986Z,11.73
2022-12-05T22:58:37.403Z,9.90
2022-12-05T23:01:14.193Z,9.53
2022-12-05T23:03:45.032Z,9.67
2022-12-05T23:06:14.547Z,7.77
2022-12-05T23:08:43.963Z,11.27
2022-12-05T23:11:12.686Z,9.80
2022-12-05T23:13:40.954Z,7.20
2022-12-05T23:16:11.164Z,8.50
2022-12-05T23:18:47.570Z,10.33
2022-12-05T23:21:21.767Z,9.53
2022-12-05T23:23:51.866Z,10.13
2022-12-05T23:26:21.381Z,9.80
2022-12-05T23:28:49.905Z,8.53
2022-12-05T23:31:18.601Z,10.60
2022-12-05T23:33:50.876Z,8.13
2022-12-05T23:36:21.787Z,7.27
2022-12-05T23:38:49.898Z,7.57
2022-12-05T23:41:20.172Z,7.97
2022-12-05T23:43:49.458Z,6.87
2022-12-05T23:46:18.876Z,7.07
2022-12-05T23:48:47.158Z,7.77
2022-12-05T23:51:17.015Z,5.90
2022-12-05T23:53:47.619Z,6.13
2022-12-05T23:56:18.353Z,7.10
2022-12-05T23:58:46.855Z,4.70
